This is the latest recevied weather packets stored in our database for station/object R1ZAAG-14. If no packets are shown the sender has not sent any weather packets the latest 10 day(s).
| Time | Temp. | Humidity | Pressure | Rain* | Wind** | Luminosity | Snow |
|---|---|---|---|---|---|---|---|
| 1778096485 | 1.67° C | 60% | 1010.4 hPa | - | - | - | - |
| 1778095585 | 2.22° C | 60% | 1010.3 hPa | - | - | - | - |
| 1778094684 | 2.78° C | 64% | 1010.1 hPa | - | - | - | - |
| 1778093784 | 4.44° C | 58% | 1010 hPa | - | - | - | - |
| 1778092883 | 5.56° C | 54% | 1009.8 hPa | - | - | - | - |
| 1778091983 | 6.11° C | 53% | 1009.8 hPa | - | - | - | - |
| 1778091082 | 6.11° C | 52% | 1009.7 hPa | - | - | - | - |
| 1778090181 | 8.33° C | 49% | 1009.5 hPa | - | - | - | - |
| 1778089281 | 8.33° C | 49% | 1009.5 hPa | - | - | - | - |
| 1778088380 | 6.67° C | 50% | 1009.4 hPa | - | - | - | - |
| 1778087479 | 9.44° C | 46% | 1009.3 hPa | - | - | - | - |
| 1778086575 | 11.11° C | 45% | 1009.2 hPa | - | - | - | - |
| 1778085674 | 10.56° C | 45% | 1009 hPa | - | - | - | - |
| 1778084790 | 11.11° C | 44% | 1008.9 hPa | - | - | - | - |
| 1778083889 | 10° C | 46% | 1008.9 hPa | - | - | - | - |
| 1778082988 | 7.22° C | 51% | 1008.9 hPa | - | - | - | - |
| 1778082087 | 4.44° C | 56% | 1008.9 hPa | - | - | - | - |
| 1778081187 | 5.56° C | 57% | 1008.6 hPa | - | - | - | - |
| 1778080285 | 8.89° C | 47% | 1008.4 hPa | - | - | - | - |
| 1778079384 | 7.22° C | 51% | 1008.4 hPa | - | - | - | - |
| 1778078484 | 5.56° C | 58% | 1008.3 hPa | - | - | - | - |
| 1778077583 | 4.44° C | 59% | 1008.3 hPa | - | - | - | - |
| 1778076682 | 3.89° C | 60% | 1008.3 hPa | - | - | - | - |
| 1778075782 | 3.33° C | 68% | 1008.1 hPa | - | - | - | - |
| 1778074881 | 3.33° C | 65% | 1008.1 hPa | - | - | - | - |
* Rain since midnight (hover to see other rain measurements)
** Current wind speed in m/s (hover to see current wind gust speed)